sensor_id;sensor_type;location;lat;lon;timestamp;P1;durP1;ratioP1;P2;durP2;ratioP2
37701;SDS011;23548;51.196;6.838;2023-03-11T00:00:30;9.15;;;2.33;;
37701;SDS011;23548;51.196;6.838;2023-03-11T00:02:57;10.55;;;2.65;;
37701;SDS011;23548;51.196;6.838;2023-03-11T00:05:25;11.75;;;2.78;;
37701;SDS011;23548;51.196;6.838;2023-03-11T00:07:53;5.63;;;2.35;;
37701;SDS011;23548;51.196;6.838;2023-03-11T00:10:21;12.63;;;3.35;;
37701;SDS011;23548;51.196;6.838;2023-03-11T00:12:48;8.77;;;2.58;;
37701;SDS011;23548;51.196;6.838;2023-03-11T00:15:14;7.03;;;2.67;;
37701;SDS011;23548;51.196;6.838;2023-03-11T00:17:40;7.47;;;2.80;;
37701;SDS011;23548;51.196;6.838;2023-03-11T00:20:06;7.13;;;2.47;;
37701;SDS011;23548;51.196;6.838;2023-03-11T00:22:33;8.35;;;3.03;;
37701;SDS011;23548;51.196;6.838;2023-03-11T00:24:59;7.10;;;2.90;;
37701;SDS011;23548;51.196;6.838;2023-03-11T00:27:24;12.57;;;2.90;;
37701;SDS011;23548;51.196;6.838;2023-03-11T00:29:50;9.68;;;3.03;;
37701;SDS011;23548;51.196;6.838;2023-03-11T00:32:16;9.70;;;2.78;;
37701;SDS011;23548;51.196;6.838;2023-03-11T00:34:41;11.43;;;3.00;;
37701;SDS011;23548;51.196;6.838;2023-03-11T00:37:07;9.73;;;2.72;;
37701;SDS011;23548;51.196;6.838;2023-03-11T00:39:33;9.68;;;3.55;;
37701;SDS011;23548;51.196;6.838;2023-03-11T00:41:59;10.60;;;2.90;;
37701;SDS011;23548;51.196;6.838;2023-03-11T00:44:24;14.48;;;2.72;;
37701;SDS011;23548;51.196;6.838;2023-03-11T00:46:50;11.27;;;2.53;;
37701;SDS011;23548;51.196;6.838;2023-03-11T00:49:16;10.57;;;2.53;;
37701;SDS011;23548;51.196;6.838;2023-03-11T00:51:42;9.57;;;3.13;;
37701;SDS011;23548;51.196;6.838;2023-03-11T00:54:09;7.55;;;2.45;;
37701;SDS011;23548;51.196;6.838;2023-03-11T00:56:35;7.60;;;2.60;;
37701;SDS011;23548;51.196;6.838;2023-03-11T00:59:00;10.38;;;2.67;;
37701;SDS011;23548;51.196;6.838;2023-03-11T01:01:26;11.10;;;2.40;;
37701;SDS011;23548;51.196;6.838;2023-03-11T01:03:52;9.23;;;2.70;;
37701;SDS011;23548;51.196;6.838;2023-03-11T01:06:17;9.10;;;2.70;;
37701;SDS011;23548;51.196;6.838;2023-03-11T01:08:43;12.02;;;2.45;;
37701;SDS011;23548;51.196;6.838;2023-03-11T01:11:09;10.23;;;2.80;;
37701;SDS011;23548;51.196;6.838;2023-03-11T01:13:34;8.88;;;2.30;;
37701;SDS011;23548;51.196;6.838;2023-03-11T01:16:00;8.00;;;2.40;;
37701;SDS011;23548;51.196;6.838;2023-03-11T01:18:26;9.40;;;2.95;;
37701;SDS011;23548;51.196;6.838;2023-03-11T01:20:52;12.55;;;2.47;;
37701;SDS011;23548;51.196;6.838;2023-03-11T01:23:20;13.48;;;2.20;;
37701;SDS011;23548;51.196;6.838;2023-03-11T01:25:46;8.80;;;2.42;;
37701;SDS011;23548;51.196;6.838;2023-03-11T01:28:12;8.20;;;2.75;;
37701;SDS011;23548;51.196;6.838;2023-03-11T01:30:39;8.20;;;2.47;;
37701;SDS011;23548;51.196;6.838;2023-03-11T01:33:06;12.90;;;2.33;;
37701;SDS011;23548;51.196;6.838;2023-03-11T01:35:33;10.02;;;2.75;;
37701;SDS011;23548;51.196;6.838;2023-03-11T01:37:59;9.55;;;2.75;;
37701;SDS011;23548;51.196;6.838;2023-03-11T01:40:33;10.68;;;2.45;;
37701;SDS011;23548;51.196;6.838;2023-03-11T01:43:03;12.75;;;2.83;;
37701;SDS011;23548;51.196;6.838;2023-03-11T01:48:14;9.77;;;2.30;;
37701;SDS011;23548;51.196;6.838;2023-03-11T01:50:42;13.70;;;2.60;;
37701;SDS011;23548;51.196;6.838;2023-03-11T01:53:13;8.05;;;2.35;;
37701;SDS011;23548;51.196;6.838;2023-03-11T01:55:41;8.23;;;2.50;;
37701;SDS011;23548;51.196;6.838;2023-03-11T01:58:10;8.32;;;2.50;;
37701;SDS011;23548;51.196;6.838;2023-03-11T02:00:39;8.52;;;2.58;;
37701;SDS011;23548;51.196;6.838;2023-03-11T02:03:29;8.98;;;2.55;;
37701;SDS011;23548;51.196;6.838;2023-03-11T02:05:58;14.32;;;3.00;;
37701;SDS011;23548;51.196;6.838;2023-03-11T02:08:29;8.15;;;2.97;;
37701;SDS011;23548;51.196;6.838;2023-03-11T02:10:58;10.30;;;3.00;;
37701;SDS011;23548;51.196;6.838;2023-03-11T02:13:26;10.85;;;2.78;;
37701;SDS011;23548;51.196;6.838;2023-03-11T02:15:53;11.88;;;2.75;;
37701;SDS011;23548;51.196;6.838;2023-03-11T02:18:18;7.68;;;3.50;;
37701;SDS011;23548;51.196;6.838;2023-03-11T02:26:53;13.02;;;2.60;;
37701;SDS011;23548;51.196;6.838;2023-03-11T02:29:27;7.22;;;2.40;;
37701;SDS011;23548;51.196;6.838;2023-03-11T02:31:57;12.80;;;2.90;;
37701;SDS011;23548;51.196;6.838;2023-03-11T02:34:29;10.48;;;2.53;;
37701;SDS011;23548;51.196;6.838;2023-03-11T02:36:56;8.50;;;2.20;;
37701;SDS011;23548;51.196;6.838;2023-03-11T02:39:30;10.13;;;2.92;;
37701;SDS011;23548;51.196;6.838;2023-03-11T02:41:56;8.63;;;2.55;;
37701;SDS011;23548;51.196;6.838;2023-03-11T02:44:23;12.70;;;3.22;;
37701;SDS011;23548;51.196;6.838;2023-03-11T02:46:50;10.68;;;2.50;;
37701;SDS011;23548;51.196;6.838;2023-03-11T02:49:17;11.70;;;2.45;;
37701;SDS011;23548;51.196;6.838;2023-03-11T02:51:45;7.88;;;2.60;;
37701;SDS011;23548;51.196;6.838;2023-03-11T02:54:11;5.53;;;2.50;;
37701;SDS011;23548;51.196;6.838;2023-03-11T02:56:36;8.23;;;2.53;;
37701;SDS011;23548;51.196;6.838;2023-03-11T02:59:02;7.90;;;2.38;;
37701;SDS011;23548;51.196;6.838;2023-03-11T03:01:28;16.13;;;2.42;;
37701;SDS011;23548;51.196;6.838;2023-03-11T03:03:55;7.68;;;2.17;;
37701;SDS011;23548;51.196;6.838;2023-03-11T03:06:21;10.48;;;2.40;;
37701;SDS011;23548;51.196;6.838;2023-03-11T03:08:46;7.97;;;2.35;;
37701;SDS011;23548;51.196;6.838;2023-03-11T03:11:12;13.57;;;2.38;;
37701;SDS011;23548;51.196;6.838;2023-03-11T03:13:38;8.30;;;2.20;;
37701;SDS011;23548;51.196;6.838;2023-03-11T03:16:04;14.45;;;2.97;;
37701;SDS011;23548;51.196;6.838;2023-03-11T03:18:30;6.57;;;2.03;;
37701;SDS011;23548;51.196;6.838;2023-03-11T03:20:56;11.43;;;2.33;;
37701;SDS011;23548;51.196;6.838;2023-03-11T03:23:22;6.40;;;2.13;;
37701;SDS011;23548;51.196;6.838;2023-03-11T03:25:48;11.32;;;2.20;;
37701;SDS011;23548;51.196;6.838;2023-03-11T03:28:14;10.18;;;2.58;;
37701;SDS011;23548;51.196;6.838;2023-03-11T03:30:40;7.07;;;2.33;;
37701;SDS011;23548;51.196;6.838;2023-03-11T03:33:06;7.72;;;1.83;;
37701;SDS011;23548;51.196;6.838;2023-03-11T03:35:33;11.25;;;2.08;;
37701;SDS011;23548;51.196;6.838;2023-03-11T03:37:59;11.45;;;2.60;;
37701;SDS011;23548;51.196;6.838;2023-03-11T03:40:25;9.65;;;2.17;;
37701;SDS011;23548;51.196;6.838;2023-03-11T03:42:52;10.20;;;2.47;;
37701;SDS011;23548;51.196;6.838;2023-03-11T03:45:18;8.30;;;1.88;;
37701;SDS011;23548;51.196;6.838;2023-03-11T03:47:44;6.82;;;1.70;;
37701;SDS011;23548;51.196;6.838;2023-03-11T03:50:10;6.15;;;1.77;;
37701;SDS011;23548;51.196;6.838;2023-03-11T03:52:37;9.10;;;2.20;;
37701;SDS011;23548;51.196;6.838;2023-03-11T03:55:04;7.47;;;1.90;;
37701;SDS011;23548;51.196;6.838;2023-03-11T03:57:30;7.60;;;2.08;;
37701;SDS011;23548;51.196;6.838;2023-03-11T03:59:57;7.10;;;2.03;;
37701;SDS011;23548;51.196;6.838;2023-03-11T04:02:23;8.75;;;1.98;;
37701;SDS011;23548;51.196;6.838;2023-03-11T04:04:49;10.75;;;2.65;;
37701;SDS011;23548;51.196;6.838;2023-03-11T04:07:14;9.63;;;2.13;;
37701;SDS011;23548;51.196;6.838;2023-03-11T04:09:41;12.50;;;3.10;;
37701;SDS011;23548;51.196;6.838;2023-03-11T04:12:10;6.43;;;2.00;;
37701;SDS011;23548;51.196;6.838;2023-03-11T04:14:41;10.32;;;2.38;;
37701;SDS011;23548;51.196;6.838;2023-03-11T04:17:11;9.48;;;2.67;;
37701;SDS011;23548;51.196;6.838;2023-03-11T04:19:38;4.18;;;2.20;;
37701;SDS011;23548;51.196;6.838;2023-03-11T04:22:04;14.10;;;2.40;;
37701;SDS011;23548;51.196;6.838;2023-03-11T04:24:30;8.45;;;2.30;;
37701;SDS011;23548;51.196;6.838;2023-03-11T04:26:56;7.97;;;2.20;;
37701;SDS011;23548;51.196;6.838;2023-03-11T04:29:22;11.38;;;2.22;;
37701;SDS011;23548;51.196;6.838;2023-03-11T04:31:47;5.35;;;2.05;;
37701;SDS011;23548;51.196;6.838;2023-03-11T04:34:13;9.77;;;2.15;;
37701;SDS011;23548;51.196;6.838;2023-03-11T04:36:39;8.63;;;2.00;;
37701;SDS011;23548;51.196;6.838;2023-03-11T04:39:05;8.80;;;2.20;;
37701;SDS011;23548;51.196;6.838;2023-03-11T04:41:32;6.50;;;2.28;;
37701;SDS011;23548;51.196;6.838;2023-03-11T04:43:58;13.48;;;2.38;;
37701;SDS011;23548;51.196;6.838;2023-03-11T04:46:24;11.30;;;2.58;;
37701;SDS011;23548;51.196;6.838;2023-03-11T04:48:50;11.38;;;2.10;;
37701;SDS011;23548;51.196;6.838;2023-03-11T04:51:16;6.63;;;1.95;;
37701;SDS011;23548;51.196;6.838;2023-03-11T04:53:42;7.45;;;1.70;;
37701;SDS011;23548;51.196;6.838;2023-03-11T04:56:08;9.35;;;2.55;;
37701;SDS011;23548;51.196;6.838;2023-03-11T04:58:34;7.72;;;1.77;;
37701;SDS011;23548;51.196;6.838;2023-03-11T05:00:59;8.95;;;1.90;;
37701;SDS011;23548;51.196;6.838;2023-03-11T05:03:25;5.15;;;1.52;;
37701;SDS011;23548;51.196;6.838;2023-03-11T05:05:51;8.18;;;2.10;;
37701;SDS011;23548;51.196;6.838;2023-03-11T05:08:20;14.68;;;3.50;;
37701;SDS011;23548;51.196;6.838;2023-03-11T05:10:47;10.18;;;3.30;;
37701;SDS011;23548;51.196;6.838;2023-03-11T05:13:13;21.88;;;4.22;;
37701;SDS011;23548;51.196;6.838;2023-03-11T05:15:38;9.93;;;3.05;;
37701;SDS011;23548;51.196;6.838;2023-03-11T05:18:04;11.80;;;4.50;;
37701;SDS011;23548;51.196;6.838;2023-03-11T05:20:30;14.15;;;4.00;;
37701;SDS011;23548;51.196;6.838;2023-03-11T05:22:56;14.73;;;4.35;;
37701;SDS011;23548;51.196;6.838;2023-03-11T05:25:22;17.35;;;4.53;;
37701;SDS011;23548;51.196;6.838;2023-03-11T05:27:48;12.55;;;3.67;;
37701;SDS011;23548;51.196;6.838;2023-03-11T05:30:14;12.07;;;3.90;;
37701;SDS011;23548;51.196;6.838;2023-03-11T05:32:40;13.07;;;4.47;;
37701;SDS011;23548;51.196;6.838;2023-03-11T05:35:06;13.25;;;4.22;;
37701;SDS011;23548;51.196;6.838;2023-03-11T05:37:32;15.52;;;4.82;;
37701;SDS011;23548;51.196;6.838;2023-03-11T05:39:59;18.23;;;4.53;;
37701;SDS011;23548;51.196;6.838;2023-03-11T05:42:25;14.23;;;4.32;;
37701;SDS011;23548;51.196;6.838;2023-03-11T05:44:50;12.52;;;3.92;;
37701;SDS011;23548;51.196;6.838;2023-03-11T05:47:16;20.33;;;4.57;;
37701;SDS011;23548;51.196;6.838;2023-03-11T05:49:42;10.57;;;3.72;;
37701;SDS011;23548;51.196;6.838;2023-03-11T05:52:08;9.50;;;3.75;;
37701;SDS011;23548;51.196;6.838;2023-03-11T05:54:34;11.68;;;2.55;;
37701;SDS011;23548;51.196;6.838;2023-03-11T05:57:00;10.77;;;3.53;;
37701;SDS011;23548;51.196;6.838;2023-03-11T05:59:26;10.60;;;3.20;;
37701;SDS011;23548;51.196;6.838;2023-03-11T06:01:51;14.40;;;2.85;;
37701;SDS011;23548;51.196;6.838;2023-03-11T06:04:17;9.45;;;3.05;;
37701;SDS011;23548;51.196;6.838;2023-03-11T06:06:43;10.20;;;3.42;;
37701;SDS011;23548;51.196;6.838;2023-03-11T06:09:12;12.38;;;2.70;;
37701;SDS011;23548;51.196;6.838;2023-03-11T06:11:38;7.70;;;2.88;;
37701;SDS011;23548;51.196;6.838;2023-03-11T06:14:04;9.93;;;2.92;;
37701;SDS011;23548;51.196;6.838;2023-03-11T06:16:30;10.20;;;2.85;;
37701;SDS011;23548;51.196;6.838;2023-03-11T06:18:55;8.40;;;2.47;;
37701;SDS011;23548;51.196;6.838;2023-03-11T06:21:24;7.28;;;2.33;;
37701;SDS011;23548;51.196;6.838;2023-03-11T06:23:51;14.13;;;2.60;;
37701;SDS011;23548;51.196;6.838;2023-03-11T06:26:18;14.82;;;3.22;;
37701;SDS011;23548;51.196;6.838;2023-03-11T06:28:45;8.98;;;2.97;;
37701;SDS011;23548;51.196;6.838;2023-03-11T06:31:13;9.00;;;3.05;;
37701;SDS011;23548;51.196;6.838;2023-03-11T06:33:41;12.63;;;3.25;;
37701;SDS011;23548;51.196;6.838;2023-03-11T06:36:09;12.15;;;3.28;;
37701;SDS011;23548;51.196;6.838;2023-03-11T06:38:36;10.13;;;3.33;;
37701;SDS011;23548;51.196;6.838;2023-03-11T06:41:02;6.22;;;3.40;;
37701;SDS011;23548;51.196;6.838;2023-03-11T06:43:32;10.00;;;3.17;;
37701;SDS011;23548;51.196;6.838;2023-03-11T06:45:58;11.73;;;4.13;;
37701;SDS011;23548;51.196;6.838;2023-03-11T06:48:25;9.55;;;3.35;;
37701;SDS011;23548;51.196;6.838;2023-03-11T06:53:24;9.02;;;3.88;;
37701;SDS011;23548;51.196;6.838;2023-03-11T06:58:26;11.45;;;3.42;;
37701;SDS011;23548;51.196;6.838;2023-03-11T07:00:52;8.50;;;3.22;;
37701;SDS011;23548;51.196;6.838;2023-03-11T07:03:18;8.45;;;2.90;;
37701;SDS011;23548;51.196;6.838;2023-03-11T07:05:44;8.95;;;3.55;;
37701;SDS011;23548;51.196;6.838;2023-03-11T07:08:10;9.35;;;3.70;;
37701;SDS011;23548;51.196;6.838;2023-03-11T07:10:35;8.07;;;3.40;;
37701;SDS011;23548;51.196;6.838;2023-03-11T07:13:01;5.15;;;2.80;;
37701;SDS011;23548;51.196;6.838;2023-03-11T07:15:27;12.52;;;3.50;;
37701;SDS011;23548;51.196;6.838;2023-03-11T07:17:53;8.23;;;3.53;;
37701;SDS011;23548;51.196;6.838;2023-03-11T07:20:19;11.68;;;4.28;;
37701;SDS011;23548;51.196;6.838;2023-03-11T07:22:45;8.20;;;3.63;;
37701;SDS011;23548;51.196;6.838;2023-03-11T07:25:11;21.35;;;4.05;;
37701;SDS011;23548;51.196;6.838;2023-03-11T07:27:36;9.95;;;3.20;;
37701;SDS011;23548;51.196;6.838;2023-03-11T07:30:02;8.77;;;2.53;;
37701;SDS011;23548;51.196;6.838;2023-03-11T07:32:28;10.68;;;2.40;;
37701;SDS011;23548;51.196;6.838;2023-03-11T07:34:54;9.18;;;2.47;;
37701;SDS011;23548;51.196;6.838;2023-03-11T07:37:20;10.65;;;3.10;;
37701;SDS011;23548;51.196;6.838;2023-03-11T07:39:46;9.93;;;2.65;;
37701;SDS011;23548;51.196;6.838;2023-03-11T07:42:11;6.00;;;3.38;;
37701;SDS011;23548;51.196;6.838;2023-03-11T07:44:37;7.47;;;2.80;;
37701;SDS011;23548;51.196;6.838;2023-03-11T07:47:04;13.50;;;3.65;;
37701;SDS011;23548;51.196;6.838;2023-03-11T07:49:30;11.77;;;3.38;;
37701;SDS011;23548;51.196;6.838;2023-03-11T07:51:56;9.10;;;3.50;;
37701;SDS011;23548;51.196;6.838;2023-03-11T07:54:22;6.18;;;3.03;;
37701;SDS011;23548;51.196;6.838;2023-03-11T07:56:48;9.80;;;3.72;;
37701;SDS011;23548;51.196;6.838;2023-03-11T07:59:13;17.65;;;3.83;;
37701;SDS011;23548;51.196;6.838;2023-03-11T08:01:39;10.82;;;3.25;;
37701;SDS011;23548;51.196;6.838;2023-03-11T08:04:06;7.55;;;3.33;;
37701;SDS011;23548;51.196;6.838;2023-03-11T08:06:34;9.00;;;3.03;;
37701;SDS011;23548;51.196;6.838;2023-03-11T08:09:02;7.25;;;2.88;;
37701;SDS011;23548;51.196;6.838;2023-03-11T08:11:30;8.60;;;2.60;;
37701;SDS011;23548;51.196;6.838;2023-03-11T08:13:56;12.25;;;3.00;;
37701;SDS011;23548;51.196;6.838;2023-03-11T08:16:23;6.40;;;2.40;;
37701;SDS011;23548;51.196;6.838;2023-03-11T08:18:50;8.55;;;2.75;;
37701;SDS011;23548;51.196;6.838;2023-03-11T08:21:18;7.75;;;2.72;;
37701;SDS011;23548;51.196;6.838;2023-03-11T08:23:48;7.75;;;2.55;;
37701;SDS011;23548;51.196;6.838;2023-03-11T08:26:16;5.22;;;2.20;;
37701;SDS011;23548;51.196;6.838;2023-03-11T08:28:43;9.95;;;2.55;;
37701;SDS011;23548;51.196;6.838;2023-03-11T08:33:45;5.05;;;2.40;;
37701;SDS011;23548;51.196;6.838;2023-03-11T08:36:16;6.85;;;2.10;;
37701;SDS011;23548;51.196;6.838;2023-03-11T08:38:43;10.02;;;2.50;;
37701;SDS011;23548;51.196;6.838;2023-03-11T08:41:09;7.38;;;2.40;;
37701;SDS011;23548;51.196;6.838;2023-03-11T08:43:35;6.28;;;2.28;;
37701;SDS011;23548;51.196;6.838;2023-03-11T08:46:01;4.40;;;2.17;;
37701;SDS011;23548;51.196;6.838;2023-03-11T08:48:30;7.13;;;2.65;;
37701;SDS011;23548;51.196;6.838;2023-03-11T08:50:56;6.18;;;2.40;;
37701;SDS011;23548;51.196;6.838;2023-03-11T08:53:22;7.10;;;2.40;;
37701;SDS011;23548;51.196;6.838;2023-03-11T08:55:49;9.68;;;2.92;;
37701;SDS011;23548;51.196;6.838;2023-03-11T08:58:15;11.73;;;2.60;;
37701;SDS011;23548;51.196;6.838;2023-03-11T09:00:41;9.90;;;2.10;;
37701;SDS011;23548;51.196;6.838;2023-03-11T09:03:07;4.88;;;1.70;;
37701;SDS011;23548;51.196;6.838;2023-03-11T09:05:33;7.53;;;1.90;;
37701;SDS011;23548;51.196;6.838;2023-03-11T09:07:58;6.68;;;1.70;;
37701;SDS011;23548;51.196;6.838;2023-03-11T09:10:26;6.53;;;1.77;;
37701;SDS011;23548;51.196;6.838;2023-03-11T09:12:52;10.95;;;1.85;;
37701;SDS011;23548;51.196;6.838;2023-03-11T09:15:18;4.65;;;1.55;;
37701;SDS011;23548;51.196;6.838;2023-03-11T09:17:43;8.20;;;1.90;;
37701;SDS011;23548;51.196;6.838;2023-03-11T09:20:13;4.82;;;1.45;;
37701;SDS011;23548;51.196;6.838;2023-03-11T09:22:39;8.18;;;1.70;;
37701;SDS011;23548;51.196;6.838;2023-03-11T09:25:05;7.32;;;2.30;;
37701;SDS011;23548;51.196;6.838;2023-03-11T09:27:32;6.35;;;2.00;;
37701;SDS011;23548;51.196;6.838;2023-03-11T09:29:57;6.53;;;2.40;;
37701;SDS011;23548;51.196;6.838;2023-03-11T09:32:23;8.68;;;1.88;;
37701;SDS011;23548;51.196;6.838;2023-03-11T09:34:49;10.20;;;2.20;;
37701;SDS011;23548;51.196;6.838;2023-03-11T09:37:15;6.32;;;2.40;;
37701;SDS011;23548;51.196;6.838;2023-03-11T09:39:41;4.70;;;1.75;;
37701;SDS011;23548;51.196;6.838;2023-03-11T09:42:14;3.20;;;0.82;;
37701;SDS011;23548;51.196;6.838;2023-03-11T09:45:15;4.32;;;0.75;;
37701;SDS011;23548;51.196;6.838;2023-03-11T09:55:51;4.10;;;1.30;;
37701;SDS011;23548;51.196;6.838;2023-03-11T10:00:54;2.70;;;1.23;;
37701;SDS011;23548;51.196;6.838;2023-03-11T10:03:31;5.68;;;1.70;;
37701;SDS011;23548;51.196;6.838;2023-03-11T10:06:03;4.45;;;1.80;;
37701;SDS011;23548;51.196;6.838;2023-03-11T10:11:14;6.93;;;2.28;;
37701;SDS011;23548;51.196;6.838;2023-03-11T10:13:44;7.05;;;2.55;;
37701;SDS011;23548;51.196;6.838;2023-03-11T10:16:46;6.30;;;2.13;;
37701;SDS011;23548;51.196;6.838;2023-03-11T10:19:45;2.97;;;1.90;;
37701;SDS011;23548;51.196;6.838;2023-03-11T10:25:15;8.50;;;1.83;;
37701;SDS011;23548;51.196;6.838;2023-03-11T10:28:05;6.88;;;2.53;;
37701;SDS011;23548;51.196;6.838;2023-03-11T10:30:39;7.18;;;2.05;;
37701;SDS011;23548;51.196;6.838;2023-03-11T10:33:23;6.15;;;2.10;;
37701;SDS011;23548;51.196;6.838;2023-03-11T10:36:12;7.55;;;1.90;;
37701;SDS011;23548;51.196;6.838;2023-03-11T10:38:44;5.18;;;2.00;;
37701;SDS011;23548;51.196;6.838;2023-03-11T10:41:14;5.10;;;2.20;;
37701;SDS011;23548;51.196;6.838;2023-03-11T10:44:09;10.15;;;2.05;;
37701;SDS011;23548;51.196;6.838;2023-03-11T10:46:49;3.88;;;1.70;;
37701;SDS011;23548;51.196;6.838;2023-03-11T10:49:16;6.25;;;1.92;;
37701;SDS011;23548;51.196;6.838;2023-03-11T10:51:44;6.32;;;2.47;;
37701;SDS011;23548;51.196;6.838;2023-03-11T10:56:53;7.15;;;2.30;;
37701;SDS011;23548;51.196;6.838;2023-03-11T10:59:30;10.88;;;2.35;;
37701;SDS011;23548;51.196;6.838;2023-03-11T11:02:24;7.63;;;3.63;;
37701;SDS011;23548;51.196;6.838;2023-03-11T11:05:02;4.03;;;2.10;;
37701;SDS011;23548;51.196;6.838;2023-03-11T11:07:37;6.25;;;2.03;;
37701;SDS011;23548;51.196;6.838;2023-03-11T11:10:25;4.00;;;2.10;;
37701;SDS011;23548;51.196;6.838;2023-03-11T11:15:28;4.38;;;1.92;;
37701;SDS011;23548;51.196;6.838;2023-03-11T11:17:59;6.50;;;1.98;;
37701;SDS011;23548;51.196;6.838;2023-03-11T11:20:31;8.07;;;1.50;;
37701;SDS011;23548;51.196;6.838;2023-03-11T11:22:59;6.53;;;2.03;;
37701;SDS011;23548;51.196;6.838;2023-03-11T11:25:28;3.08;;;1.70;;
37701;SDS011;23548;51.196;6.838;2023-03-11T11:28:19;5.65;;;2.10;;
37701;SDS011;23548;51.196;6.838;2023-03-11T11:33:27;3.55;;;1.77;;
37701;SDS011;23548;51.196;6.838;2023-03-11T11:35:56;8.82;;;2.90;;
37701;SDS011;23548;51.196;6.838;2023-03-11T11:38:28;7.13;;;2.38;;
37701;SDS011;23548;51.196;6.838;2023-03-11T11:40:55;4.25;;;2.00;;
37701;SDS011;23548;51.196;6.838;2023-03-11T11:43:35;6.78;;;2.00;;
37701;SDS011;23548;51.196;6.838;2023-03-11T11:46:26;5.20;;;2.08;;
37701;SDS011;23548;51.196;6.838;2023-03-11T11:49:24;6.57;;;1.90;;
37701;SDS011;23548;51.196;6.838;2023-03-11T11:54:36;4.13;;;1.92;;
37701;SDS011;23548;51.196;6.838;2023-03-11T11:57:13;8.07;;;2.45;;
37701;SDS011;23548;51.196;6.838;2023-03-11T11:59:40;5.90;;;1.58;;
37701;SDS011;23548;51.196;6.838;2023-03-11T12:04:55;4.20;;;1.88;;
37701;SDS011;23548;51.196;6.838;2023-03-11T12:07:40;5.88;;;2.10;;
37701;SDS011;23548;51.196;6.838;2023-03-11T12:10:51;7.07;;;2.58;;
37701;SDS011;23548;51.196;6.838;2023-03-11T12:18:38;4.93;;;1.85;;
37701;SDS011;23548;51.196;6.838;2023-03-11T12:23:58;8.95;;;1.60;;
37701;SDS011;23548;51.196;6.838;2023-03-11T12:26:42;5.40;;;1.65;;
37701;SDS011;23548;51.196;6.838;2023-03-11T12:31:57;6.32;;;1.60;;
37701;SDS011;23548;51.196;6.838;2023-03-11T12:34:25;3.90;;;1.90;;
37701;SDS011;23548;51.196;6.838;2023-03-11T12:36:52;11.73;;;4.45;;
37701;SDS011;23548;51.196;6.838;2023-03-11T12:39:22;9.13;;;2.00;;
37701;SDS011;23548;51.196;6.838;2023-03-11T12:42:25;4.60;;;1.88;;
37701;SDS011;23548;51.196;6.838;2023-03-11T12:44:46;4.90;;;1.63;;
37701;SDS011;23548;51.196;6.838;2023-03-11T12:49:42;6.57;;;2.08;;
37701;SDS011;23548;51.196;6.838;2023-03-11T12:54:36;4.47;;;1.52;;
37701;SDS011;23548;51.196;6.838;2023-03-11T13:07:38;9.70;;;4.75;;
37701;SDS011;23548;51.196;6.838;2023-03-11T13:10:18;6.47;;;2.05;;
37701;SDS011;23548;51.196;6.838;2023-03-11T13:16:43;4.40;;;1.60;;
37701;SDS011;23548;51.196;6.838;2023-03-11T13:18:47;5.20;;;1.45;;
37701;SDS011;23548;51.196;6.838;2023-03-11T13:21:36;4.03;;;1.52;;
37701;SDS011;23548;51.196;6.838;2023-03-11T13:27:08;2.72;;;1.33;;
37701;SDS011;23548;51.196;6.838;2023-03-11T13:32:37;6.15;;;2.13;;
37701;SDS011;23548;51.196;6.838;2023-03-11T13:40:57;3.63;;;1.27;;
37701;SDS011;23548;51.196;6.838;2023-03-11T13:43:24;7.28;;;1.88;;
37701;SDS011;23548;51.196;6.838;2023-03-11T13:45:55;5.97;;;1.52;;
37701;SDS011;23548;51.196;6.838;2023-03-11T13:48:27;9.70;;;1.85;;
37701;SDS011;23548;51.196;6.838;2023-03-11T13:51:03;2.58;;;1.40;;
37701;SDS011;23548;51.196;6.838;2023-03-11T13:53:50;8.30;;;2.03;;
37701;SDS011;23548;51.196;6.838;2023-03-11T13:56:27;8.48;;;1.92;;
37701;SDS011;23548;51.196;6.838;2023-03-11T14:01:49;2.70;;;1.60;;
37701;SDS011;23548;51.196;6.838;2023-03-11T14:04:30;6.93;;;1.42;;
37701;SDS011;23548;51.196;6.838;2023-03-11T14:06:58;4.88;;;1.77;;
37701;SDS011;23548;51.196;6.838;2023-03-11T14:09:25;2.97;;;1.73;;
37701;SDS011;23548;51.196;6.838;2023-03-11T14:11:53;6.75;;;1.58;;
37701;SDS011;23548;51.196;6.838;2023-03-11T14:17:16;4.22;;;1.70;;
37701;SDS011;23548;51.196;6.838;2023-03-11T14:19:52;5.40;;;1.50;;
37701;SDS011;23548;51.196;6.838;2023-03-11T14:22:49;6.13;;;1.63;;
37701;SDS011;23548;51.196;6.838;2023-03-11T14:25:24;3.78;;;1.45;;
37701;SDS011;23548;51.196;6.838;2023-03-11T14:30:25;6.22;;;2.70;;
37701;SDS011;23548;51.196;6.838;2023-03-11T14:32:57;4.40;;;2.50;;
37701;SDS011;23548;51.196;6.838;2023-03-11T14:35:29;4.10;;;1.58;;
37701;SDS011;23548;51.196;6.838;2023-03-11T14:37:58;7.80;;;1.50;;
37701;SDS011;23548;51.196;6.838;2023-03-11T14:40:31;4.30;;;1.38;;
37701;SDS011;23548;51.196;6.838;2023-03-11T14:43:05;6.65;;;1.50;;
37701;SDS011;23548;51.196;6.838;2023-03-11T14:45:33;8.18;;;1.50;;
37701;SDS011;23548;51.196;6.838;2023-03-11T14:48:07;8.68;;;1.50;;
37701;SDS011;23548;51.196;6.838;2023-03-11T14:50:38;7.15;;;1.40;;
37701;SDS011;23548;51.196;6.838;2023-03-11T14:55:35;4.78;;;1.60;;
37701;SDS011;23548;51.196;6.838;2023-03-11T14:58:17;3.47;;;1.73;;
37701;SDS011;23548;51.196;6.838;2023-03-11T15:01:03;5.65;;;1.40;;
37701;SDS011;23548;51.196;6.838;2023-03-11T15:03:30;3.47;;;1.40;;
37701;SDS011;23548;51.196;6.838;2023-03-11T15:06:07;3.47;;;1.33;;
37701;SDS011;23548;51.196;6.838;2023-03-11T15:08:37;4.13;;;1.50;;
37701;SDS011;23548;51.196;6.838;2023-03-11T15:13:35;7.68;;;1.80;;
37701;SDS011;23548;51.196;6.838;2023-03-11T15:16:03;3.92;;;2.00;;
37701;SDS011;23548;51.196;6.838;2023-03-11T15:18:33;5.03;;;1.52;;
37701;SDS011;23548;51.196;6.838;2023-03-11T15:21:02;5.35;;;1.40;;
37701;SDS011;23548;51.196;6.838;2023-03-11T15:23:43;5.25;;;1.38;;
37701;SDS011;23548;51.196;6.838;2023-03-11T15:26:16;8.52;;;1.75;;
37701;SDS011;23548;51.196;6.838;2023-03-11T15:28:51;14.68;;;1.50;;
37701;SDS011;23548;51.196;6.838;2023-03-11T15:31:28;4.63;;;1.67;;
37701;SDS011;23548;51.196;6.838;2023-03-11T15:34:09;5.10;;;1.45;;
37701;SDS011;23548;51.196;6.838;2023-03-11T15:44:24;10.88;;;2.85;;
37701;SDS011;23548;51.196;6.838;2023-03-11T15:46:53;8.65;;;1.58;;
37701;SDS011;23548;51.196;6.838;2023-03-11T15:49:19;5.80;;;1.30;;
37701;SDS011;23548;51.196;6.838;2023-03-11T15:51:46;5.78;;;1.40;;
37701;SDS011;23548;51.196;6.838;2023-03-11T15:54:11;5.47;;;1.65;;
37701;SDS011;23548;51.196;6.838;2023-03-11T15:56:37;2.35;;;1.35;;
37701;SDS011;23548;51.196;6.838;2023-03-11T15:59:03;4.95;;;1.50;;
37701;SDS011;23548;51.196;6.838;2023-03-11T16:01:29;5.63;;;1.80;;
37701;SDS011;23548;51.196;6.838;2023-03-11T16:03:55;8.32;;;1.83;;
37701;SDS011;23548;51.196;6.838;2023-03-11T16:06:21;5.20;;;1.40;;
37701;SDS011;23548;51.196;6.838;2023-03-11T16:08:48;6.65;;;1.50;;
37701;SDS011;23548;51.196;6.838;2023-03-11T16:11:14;5.80;;;1.40;;
37701;SDS011;23548;51.196;6.838;2023-03-11T16:13:40;6.70;;;1.30;;
37701;SDS011;23548;51.196;6.838;2023-03-11T16:16:09;5.68;;;1.52;;
37701;SDS011;23548;51.196;6.838;2023-03-11T16:18:40;7.38;;;1.25;;
37701;SDS011;23548;51.196;6.838;2023-03-11T16:21:07;4.47;;;1.33;;
37701;SDS011;23548;51.196;6.838;2023-03-11T16:23:39;3.60;;;1.20;;
37701;SDS011;23548;51.196;6.838;2023-03-11T16:26:06;5.43;;;1.45;;
37701;SDS011;23548;51.196;6.838;2023-03-11T16:28:35;6.78;;;1.52;;
37701;SDS011;23548;51.196;6.838;2023-03-11T16:31:00;6.35;;;2.40;;
37701;SDS011;23548;51.196;6.838;2023-03-11T16:33:27;7.70;;;2.83;;
37701;SDS011;23548;51.196;6.838;2023-03-11T16:35:52;4.53;;;1.50;;
37701;SDS011;23548;51.196;6.838;2023-03-11T16:38:18;8.20;;;2.05;;
37701;SDS011;23548;51.196;6.838;2023-03-11T16:40:53;5.43;;;1.73;;
37701;SDS011;23548;51.196;6.838;2023-03-11T16:43:21;5.75;;;1.60;;